createdAt,value
2019-04-06T00:00:54.274Z,8.6
2019-04-06T00:01:56.401Z,8.7
2019-04-06T00:02:58.577Z,8.9
2019-04-06T00:04:01.051Z,9.1
2019-04-06T00:05:03.779Z,9.2
2019-04-06T00:06:06.004Z,9.3
2019-04-06T00:07:08.143Z,9.4
2019-04-06T00:08:10.640Z,9.4
2019-04-06T00:09:13.048Z,9.3
2019-04-06T00:10:15.571Z,9.3
2019-04-06T00:11:17.706Z,9.1
2019-04-06T00:12:19.818Z,9.1
2019-04-06T00:13:22.307Z,9.1
2019-04-06T00:14:24.462Z,9.1
2019-04-06T00:15:26.576Z,9.1
2019-04-06T00:16:28.714Z,9
2019-04-06T00:17:30.828Z,9.1
2019-04-06T00:18:32.976Z,9.1
2019-04-06T00:19:35.104Z,9.1
2019-04-06T00:20:37.271Z,9.1
2019-04-06T00:21:39.414Z,9.3
2019-04-06T00:22:41.633Z,9.3
2019-04-06T00:23:44.042Z,9.3
2019-04-06T00:24:46.607Z,9.3
2019-04-06T00:25:49.083Z,9.3
2019-04-06T00:26:51.215Z,9.3
2019-04-06T00:27:53.348Z,9.3
2019-04-06T00:28:55.474Z,9.3
2019-04-06T00:29:57.599Z,9.2
2019-04-06T00:30:59.731Z,9.2
2019-04-06T00:32:01.892Z,9.2
2019-04-06T00:33:04.356Z,9.1
2019-04-06T00:34:06.512Z,9.1
2019-04-06T00:35:08.624Z,9
2019-04-06T00:36:10.745Z,9
2019-04-06T00:37:12.925Z,9.1
2019-04-06T00:38:15.350Z,9.2
2019-04-06T00:39:17.532Z,9.2
2019-04-06T00:40:19.966Z,9.2
2019-04-06T00:41:22.361Z,9.3
2019-04-06T00:42:25.102Z,9.2
2019-04-06T00:43:27.518Z,9.2
2019-04-06T00:44:29.947Z,9.3
2019-04-06T00:45:32.060Z,9.4
2019-04-06T00:46:34.250Z,9.4
2019-04-06T00:47:36.763Z,9.4
2019-04-06T00:48:38.933Z,9.4
2019-04-06T00:49:41.065Z,9.5
2019-04-06T00:50:43.281Z,9.4
2019-04-06T00:51:45.442Z,9.5
2019-04-06T00:52:47.611Z,9.5
2019-04-06T00:53:49.757Z,9.6
2019-04-06T00:54:51.869Z,9.6
2019-04-06T00:55:57.646Z,9.5
2019-04-06T00:56:59.765Z,9.6
2019-04-06T00:58:01.887Z,9.5
2019-04-06T00:59:04.774Z,9.5
2019-04-06T01:00:06.899Z,9.6
2019-04-06T01:01:09.027Z,9.5
2019-04-06T01:02:11.637Z,9.5
2019-04-06T01:03:13.775Z,9.5
2019-04-06T01:04:16.252Z,9.4
2019-04-06T01:05:18.412Z,9.4
2019-04-06T01:06:20.844Z,9.4
2019-04-06T01:07:24.492Z,9.6
2019-04-06T01:08:26.604Z,9.6
2019-04-06T01:09:28.725Z,9.7
2019-04-06T01:10:30.910Z,9.8
2019-04-06T01:11:33.079Z,9.8
2019-04-06T01:12:35.188Z,9.7
2019-04-06T01:13:37.322Z,9.8
2019-04-06T01:14:39.436Z,9.7
2019-04-06T01:15:41.676Z,9.8
2019-04-06T01:16:43.825Z,9.9
2019-04-06T01:17:45.969Z,9.8
2019-04-06T01:18:48.170Z,9.9
2019-04-06T01:19:50.335Z,9.8
2019-04-06T01:20:53.204Z,9.8
2019-04-06T01:21:55.620Z,9.9
2019-04-06T01:22:57.772Z,9.9
2019-04-06T01:24:00.176Z,9.8
2019-04-06T01:25:02.358Z,9.8
2019-04-06T01:26:08.953Z,9.8
2019-04-06T01:27:11.206Z,9.6
2019-04-06T01:28:13.337Z,9.6
2019-04-06T01:29:15.522Z,9.8
2019-04-06T01:30:17.771Z,9.9
2019-04-06T01:31:19.880Z,9.9
2019-04-06T01:32:22.726Z,9.9
2019-04-06T01:33:24.843Z,9.9
2019-04-06T01:34:26.977Z,9.9
2019-04-06T01:35:29.123Z,10
2019-04-06T01:36:31.298Z,9.6
2019-04-06T01:37:33.773Z,9.7
2019-04-06T01:38:36.007Z,9.7
2019-04-06T01:39:38.208Z,9.6
2019-04-06T01:40:40.385Z,9.8
2019-04-06T01:41:42.644Z,9.8
2019-04-06T01:42:44.793Z,9.7
2019-04-06T01:43:47.252Z,9.6
2019-04-06T01:44:49.480Z,9.5
2019-04-06T01:45:51.737Z,9.7
2019-04-06T01:46:54.236Z,9.6
2019-04-06T01:47:56.423Z,9.8
2019-04-06T01:48:58.885Z,10.1
2019-04-06T01:50:01.017Z,9.9
2019-04-06T01:51:03.483Z,9.8
2019-04-06T01:52:05.590Z,9.6
2019-04-06T01:53:07.766Z,9.7
2019-04-06T01:54:09.908Z,9.5
2019-04-06T01:55:12.417Z,9.5
2019-04-06T01:56:20.180Z,9.4
2019-04-06T01:57:22.338Z,9.9
2019-04-06T01:58:24.552Z,9.7
2019-04-06T01:59:26.773Z,9.9
2019-04-06T02:00:28.958Z,9.9
2019-04-06T02:01:31.066Z,9.8
2019-04-06T02:02:33.200Z,9.9
2019-04-06T02:03:35.315Z,10
2019-04-06T02:04:37.725Z,10
2019-04-06T02:05:39.874Z,9.7
2019-04-06T02:06:42.074Z,9.8
2019-04-06T02:07:44.473Z,9.8
2019-04-06T02:08:46.629Z,9.9
2019-04-06T02:09:48.819Z,9.9
2019-04-06T02:10:51.045Z,9.8
2019-04-06T02:11:53.263Z,10
2019-04-06T02:12:55.362Z,10
2019-04-06T02:13:57.911Z,10
2019-04-06T02:15:00.005Z,10
2019-04-06T02:16:02.284Z,10
2019-04-06T02:17:04.935Z,9.9
2019-04-06T02:18:07.425Z,9.8
2019-04-06T02:19:09.522Z,10
2019-04-06T02:20:11.715Z,10
2019-04-06T02:21:14.206Z,10.1
2019-04-06T02:22:16.333Z,9.9
2019-04-06T02:23:18.447Z,9.6
2019-04-06T02:24:20.893Z,9.3
2019-04-06T02:25:23.220Z,9.4
2019-04-06T02:26:32.300Z,9.7
2019-04-06T02:27:34.442Z,9.9
2019-04-06T02:28:36.538Z,9.9
2019-04-06T02:29:38.766Z,10
2019-04-06T02:30:41.099Z,10.1
2019-04-06T02:31:43.414Z,9.9
2019-04-06T02:32:46.632Z,9.8
2019-04-06T02:33:49.363Z,9.9
2019-04-06T02:34:52.260Z,9.9
2019-04-06T02:35:54.630Z,9.6
2019-04-06T02:36:57.427Z,9.4
2019-04-06T02:38:00.115Z,9.5
2019-04-06T02:39:03.007Z,9.4
2019-04-06T02:40:09.870Z,9.5
2019-04-06T02:41:12.658Z,9.7
2019-04-06T02:42:15.071Z,9.8
2019-04-06T02:43:17.571Z,9.9
2019-04-06T02:44:20.099Z,10
2019-04-06T02:45:22.448Z,9.9
2019-04-06T02:46:24.546Z,10
2019-04-06T02:47:26.859Z,10.1
2019-04-06T02:48:28.981Z,9.9
2019-04-06T02:49:31.666Z,9.9
2019-04-06T02:50:33.902Z,9.9
2019-04-06T02:51:36.363Z,9.8
2019-04-06T02:52:39.388Z,9.5
2019-04-06T02:53:41.824Z,9.6
2019-04-06T02:54:44.632Z,9.8
2019-04-06T02:55:46.896Z,9.7
2019-04-06T02:56:49.296Z,9.7
2019-04-06T02:57:51.869Z,9.4
2019-04-06T02:58:54.372Z,9.6
2019-04-06T02:59:56.773Z,9.7
2019-04-06T03:00:59.349Z,9.7
2019-04-06T03:02:01.898Z,9.6
2019-04-06T03:03:04.407Z,9.7
2019-04-06T03:04:07.083Z,9.6
2019-04-06T03:05:09.236Z,9.9
2019-04-06T03:06:11.819Z,10
2019-04-06T03:07:14.352Z,10.1
2019-04-06T03:08:16.873Z,10.1
2019-04-06T03:09:19.432Z,9.8
2019-04-06T03:10:21.541Z,10
2019-04-06T03:11:24.675Z,10
2019-04-06T03:12:27.186Z,10
2019-04-06T03:13:29.319Z,10
2019-04-06T03:14:31.713Z,9.9
2019-04-06T03:15:34.137Z,9.6
2019-04-06T03:16:36.848Z,9.9
2019-04-06T03:17:39.339Z,9.8
2019-04-06T03:18:41.898Z,9.7
2019-04-06T03:19:44.327Z,9.8
2019-04-06T03:20:46.468Z,9.8
2019-04-06T03:21:49.086Z,9.5
2019-04-06T03:22:51.196Z,9.6
2019-04-06T03:23:54.313Z,9.8
2019-04-06T03:24:56.839Z,9.8
2019-04-06T03:25:59.341Z,9.9
2019-04-06T03:27:04.512Z,9.7
2019-04-06T03:28:06.882Z,9.8
2019-04-06T03:29:09.894Z,9.8
2019-04-06T03:30:13.084Z,9.8
2019-04-06T03:31:16.040Z,10
2019-04-06T03:32:18.777Z,9.7
2019-04-06T03:33:21.954Z,9.9
2019-04-06T03:34:24.850Z,9.9
2019-04-06T03:35:27.816Z,9.9
2019-04-06T03:36:30.064Z,9.9
2019-04-06T03:37:33.249Z,10
2019-04-06T03:38:36.039Z,9.8
2019-04-06T03:39:38.606Z,9.9
2019-04-06T03:40:40.995Z,9.9
2019-04-06T03:41:43.179Z,10
2019-04-06T03:42:45.898Z,10.1
2019-04-06T03:43:48.157Z,10.2
2019-04-06T03:44:51.209Z,10.4
2019-04-06T03:45:54.075Z,10.2
2019-04-06T03:46:56.860Z,10.1
2019-04-06T03:47:59.543Z,10.2
2019-04-06T03:49:01.686Z,10.3
2019-04-06T03:50:04.121Z,10.2
2019-04-06T03:51:06.524Z,10.2
2019-04-06T03:52:08.744Z,10.1
2019-04-06T03:53:10.989Z,10.1
2019-04-06T03:54:13.922Z,10.1
2019-04-06T03:55:16.317Z,10.3
2019-04-06T03:56:18.836Z,10.1
2019-04-06T03:57:20.924Z,10
2019-04-06T03:58:23.264Z,10.2
2019-04-06T03:59:26.058Z,10.1
2019-04-06T04:00:29.152Z,10.1
2019-04-06T04:01:31.627Z,10.2
2019-04-06T04:02:34.156Z,10.1
2019-04-06T04:03:36.971Z,10.3
2019-04-06T04:04:39.114Z,10.1
2019-04-06T04:05:41.730Z,10.2
2019-04-06T04:06:44.970Z,10.2
2019-04-06T04:07:47.396Z,10.1
2019-04-06T04:08:50.068Z,10
2019-04-06T04:09:52.523Z,9.9
2019-04-06T04:10:54.548Z,9.9
2019-04-06T04:11:57.283Z,9.9
2019-04-06T04:12:59.398Z,10
2019-04-06T04:14:02.049Z,9.8
2019-04-06T04:15:04.146Z,9.9
2019-04-06T04:16:06.469Z,9.9
2019-04-06T04:17:08.613Z,10.1
2019-04-06T04:18:11.131Z,10.2
2019-04-06T04:19:14.148Z,10.1
2019-04-06T04:20:16.441Z,10.1
2019-04-06T04:21:18.555Z,9.9
2019-04-06T04:22:20.969Z,9.8
2019-04-06T04:23:23.344Z,9.7
2019-04-06T04:24:26.015Z,9.9
2019-04-06T04:25:28.427Z,9.8
2019-04-06T04:26:30.749Z,10
2019-04-06T04:27:32.803Z,10.1
2019-04-06T04:28:35.911Z,10.2
2019-04-06T04:29:38.178Z,10.1
2019-04-06T04:30:40.947Z,10.2
2019-04-06T04:31:43.962Z,10
2019-04-06T04:32:46.881Z,9.9
2019-04-06T04:33:49.483Z,10.1
2019-04-06T04:34:51.960Z,10
2019-04-06T04:35:54.589Z,9.9
2019-04-06T04:36:56.633Z,9.9
2019-04-06T04:37:58.848Z,10
2019-04-06T04:39:01.386Z,10.1
2019-04-06T04:40:04.017Z,10.1
2019-04-06T04:41:06.658Z,10.2
2019-04-06T04:42:08.842Z,10.1
2019-04-06T04:43:11.341Z,10.1
2019-04-06T04:44:14.423Z,10.1
2019-04-06T04:45:16.654Z,10.2
2019-04-06T04:46:18.914Z,10.2
2019-04-06T04:47:21.671Z,10.1
2019-04-06T04:48:23.862Z,10.2
2019-04-06T04:49:26.161Z,10
2019-04-06T04:50:28.720Z,9.9
2019-04-06T04:51:31.155Z,10.1
2019-04-06T04:52:33.401Z,9.9
2019-04-06T04:53:35.467Z,10.1
2019-04-06T04:54:37.973Z,10.1
2019-04-06T04:55:40.386Z,10.3
2019-04-06T04:56:43.408Z,10.3
2019-04-06T04:57:46.937Z,10.3
2019-04-06T04:58:49.124Z,10.4
2019-04-06T04:59:51.298Z,10.4
2019-04-06T05:00:53.740Z,10.3
2019-04-06T05:01:56.092Z,10.2
2019-04-06T05:02:58.424Z,10.1
2019-04-06T05:04:00.536Z,10.1
2019-04-06T05:05:03.199Z,10.2
2019-04-06T05:06:05.356Z,10.3
2019-04-06T05:07:07.503Z,10.3
2019-04-06T05:08:09.707Z,10.3
2019-04-06T05:09:11.797Z,10.3
2019-04-06T05:10:13.996Z,10.3
2019-04-06T05:11:16.312Z,10.1
2019-04-06T05:12:18.353Z,10.2
2019-04-06T05:13:20.486Z,10.2
2019-04-06T05:14:22.722Z,10.3
2019-04-06T05:15:24.821Z,10.4
2019-04-06T05:16:26.999Z,10.3
2019-04-06T05:17:29.301Z,10.3
2019-04-06T05:18:31.792Z,10.3
2019-04-06T05:19:33.825Z,10
2019-04-06T05:20:36.003Z,10.1
2019-04-06T05:21:38.354Z,10.2
2019-04-06T05:22:40.735Z,10.2
2019-04-06T05:23:42.787Z,10.3
2019-04-06T05:24:45.057Z,10.3
2019-04-06T05:25:47.130Z,10.3
2019-04-06T05:26:49.296Z,10.1
2019-04-06T05:27:54.597Z,10.1
2019-04-06T05:28:56.697Z,10.1
2019-04-06T05:29:59.107Z,10.2
2019-04-06T05:31:01.150Z,10.2
2019-04-06T05:32:03.942Z,10.3
2019-04-06T05:33:06.226Z,10.4
2019-04-06T05:34:08.271Z,10.4
2019-04-06T05:35:11.165Z,10.4
2019-04-06T05:36:13.361Z,10.4
2019-04-06T05:37:15.403Z,10.3
2019-04-06T05:38:17.432Z,10.4
2019-04-06T05:39:19.566Z,10.4
2019-04-06T05:40:21.701Z,10.4
2019-04-06T05:41:23.945Z,10.4
2019-04-06T05:42:26.371Z,10.3
2019-04-06T05:43:29.088Z,10.1
2019-04-06T05:44:31.631Z,10.1
2019-04-06T05:45:34.319Z,10.1
2019-04-06T05:46:36.468Z,10.1
2019-04-06T05:47:39.113Z,10.2
2019-04-06T05:48:41.167Z,10.3
2019-04-06T05:49:43.283Z,10.3
2019-04-06T05:50:45.433Z,10.3
2019-04-06T05:51:47.499Z,10.4
2019-04-06T05:52:49.525Z,10.5
2019-04-06T05:53:51.736Z,10.3
2019-04-06T05:54:54.030Z,10.3
2019-04-06T05:55:56.187Z,10.2
2019-04-06T05:56:58.379Z,10.3
2019-04-06T05:58:12.094Z,10.3
2019-04-06T05:59:14.740Z,10.4
2019-04-06T06:00:17.163Z,10.5
2019-04-06T06:01:19.539Z,10.4
2019-04-06T06:02:22.861Z,10.5
2019-04-06T06:03:24.998Z,10.5
2019-04-06T06:04:27.478Z,10.6
2019-04-06T06:05:29.522Z,10.3
2019-04-06T06:06:31.557Z,10.3
2019-04-06T06:07:34.337Z,10.4
2019-04-06T06:08:37.151Z,10.4
2019-04-06T06:09:39.706Z,10.2
2019-04-06T06:10:42.011Z,10.3
2019-04-06T06:11:44.050Z,10.2
2019-04-06T06:12:46.191Z,10.5
2019-04-06T06:13:48.509Z,10.3
2019-04-06T06:14:51.002Z,10.3
2019-04-06T06:15:53.455Z,10.5
2019-04-06T06:16:55.670Z,10.7
2019-04-06T06:17:57.750Z,10.6
2019-04-06T06:18:59.924Z,10.6
2019-04-06T06:20:02.077Z,10.8
2019-04-06T06:21:04.254Z,10.5
2019-04-06T06:22:07.067Z,10.5
2019-04-06T06:23:09.359Z,10.8
2019-04-06T06:24:11.701Z,10.8
2019-04-06T06:25:14.507Z,10.8
2019-04-06T06:26:18.093Z,10.8
2019-04-06T06:27:22.567Z,10.8
2019-04-06T06:28:25.234Z,10.8
2019-04-06T06:29:27.449Z,10.9
2019-04-06T06:30:30.170Z,10.9
2019-04-06T06:31:32.378Z,10.9
2019-04-06T06:32:34.826Z,10.9
2019-04-06T06:33:37.150Z,10.9
2019-04-06T06:34:39.320Z,10.9
2019-04-06T06:35:41.752Z,10.9
2019-04-06T06:36:43.887Z,10.8
2019-04-06T06:37:45.923Z,11
2019-04-06T06:38:48.233Z,11.1
2019-04-06T06:39:50.312Z,10.9
2019-04-06T06:40:52.436Z,11.1
2019-04-06T06:41:54.695Z,11.2
2019-04-06T06:42:56.726Z,11.1
2019-04-06T06:43:58.795Z,11.2
2019-04-06T06:45:01.375Z,11.1
2019-04-06T06:46:03.882Z,10.9
2019-04-06T06:47:06.126Z,11.2
2019-04-06T06:48:08.442Z,11.2
2019-04-06T06:49:10.626Z,11.4
2019-04-06T06:50:12.856Z,11.5
2019-04-06T06:51:15.169Z,11.5
2019-04-06T06:52:17.493Z,11.6
2019-04-06T06:53:19.710Z,11.7
2019-04-06T06:54:22.244Z,11.8
2019-04-06T06:55:27.422Z,11.9
2019-04-06T06:56:29.748Z,11.8
2019-04-06T06:57:31.974Z,11.8
2019-04-06T06:58:34.022Z,11.7
2019-04-06T06:59:36.061Z,12
2019-04-06T07:00:38.323Z,12.1
2019-04-06T07:01:40.532Z,12.1
2019-04-06T07:02:42.709Z,12.3
2019-04-06T07:03:45.518Z,12.4
2019-04-06T07:04:47.839Z,12.2
2019-04-06T07:05:50.576Z,12.2
2019-04-06T07:06:53.074Z,12.2
2019-04-06T07:07:55.334Z,12.4
2019-04-06T07:08:57.544Z,12.5
2019-04-06T07:10:07.859Z,12.6
2019-04-06T07:11:10.334Z,12.7
2019-04-06T07:12:12.806Z,12.9
2019-04-06T07:13:15.124Z,12.9
2019-04-06T07:14:18.135Z,12.9
2019-04-06T07:15:21.023Z,13.2
2019-04-06T07:16:23.388Z,13.1
2019-04-06T07:17:25.464Z,13.1
2019-04-06T07:18:27.555Z,13.1
2019-04-06T07:19:30.448Z,13.3
2019-04-06T07:20:32.828Z,13.3
2019-04-06T07:21:35.381Z,13.3
2019-04-06T07:22:37.970Z,13.1
2019-04-06T07:23:40.183Z,13.3
2019-04-06T07:24:42.277Z,13.4
2019-04-06T07:25:58.978Z,13.5
2019-04-06T07:27:01.568Z,13.6
2019-04-06T07:28:03.705Z,13.3
2019-04-06T07:29:05.769Z,13.4
2019-04-06T07:30:08.208Z,13.6
2019-04-06T07:31:11.180Z,13.8
2019-04-06T07:32:13.685Z,14.1
2019-04-06T07:33:16.115Z,14
2019-04-06T07:34:18.374Z,14.1
2019-04-06T07:35:20.651Z,14.1
2019-04-06T07:36:22.809Z,14.1
2019-04-06T07:37:25.042Z,14.2
2019-04-06T07:38:27.665Z,14.1
2019-04-06T07:39:29.865Z,14.1
2019-04-06T07:40:32.005Z,13.9
2019-04-06T07:41:35.009Z,13.8
2019-04-06T07:42:37.497Z,14.1
2019-04-06T07:43:39.703Z,14.1
2019-04-06T07:44:42.061Z,14.1
2019-04-06T07:45:44.337Z,14.1
2019-04-06T07:46:46.417Z,14.2
2019-04-06T07:47:49.150Z,14.2
2019-04-06T07:48:51.786Z,14.3
2019-04-06T07:49:54.067Z,14.1
2019-04-06T07:50:56.584Z,14.3
2019-04-06T07:51:59.141Z,14.3
2019-04-06T07:53:01.368Z,14.3
2019-04-06T07:54:04.048Z,14.2
2019-04-06T07:55:06.847Z,14.1
2019-04-06T07:56:09.491Z,14.3
2019-04-06T07:57:12.283Z,14.2
2019-04-06T07:58:14.802Z,14.3
2019-04-06T07:59:17.158Z,14.6
2019-04-06T08:00:19.504Z,14.8
2019-04-06T08:01:21.547Z,14.9
2019-04-06T08:02:23.780Z,14.9
2019-04-06T08:03:25.991Z,15.2
2019-04-06T08:04:28.517Z,15.2
2019-04-06T08:05:31.132Z,15.6
2019-04-06T08:06:33.264Z,15.9
2019-04-06T08:07:35.983Z,15.9
2019-04-06T08:08:38.127Z,15.8
2019-04-06T08:09:40.292Z,15.7
2019-04-06T08:10:42.338Z,15.7
2019-04-06T08:11:44.906Z,15.9
2019-04-06T08:12:47.107Z,16
2019-04-06T08:13:49.485Z,15.9
2019-04-06T08:14:51.613Z,15.4
2019-04-06T08:15:53.875Z,15.8
2019-04-06T08:16:56.816Z,15.9
2019-04-06T08:17:59.063Z,15.9
2019-04-06T08:19:01.263Z,15.8
2019-04-06T08:20:03.972Z,15.7
2019-04-06T08:21:06.267Z,15.8
2019-04-06T08:22:08.371Z,15.9
2019-04-06T08:23:10.823Z,16
2019-04-06T08:24:13.624Z,15.6
2019-04-06T08:25:16.093Z,15.7
2019-04-06T08:26:18.415Z,15.8
2019-04-06T08:27:20.733Z,15.8
2019-04-06T08:28:23.794Z,16
2019-04-06T08:29:25.953Z,16.1
2019-04-06T08:30:28.983Z,15.9
2019-04-06T08:31:31.308Z,16
2019-04-06T08:32:34.179Z,16
2019-04-06T08:33:36.638Z,16.1
2019-04-06T08:34:38.923Z,16
2019-04-06T08:35:41.220Z,16.2
2019-04-06T08:36:43.494Z,16.4
2019-04-06T08:37:46.331Z,16.4
2019-04-06T08:38:48.581Z,16.6
2019-04-06T08:39:51.263Z,17.1
2019-04-06T08:40:54.041Z,17.5
2019-04-06T08:41:56.820Z,17.5
2019-04-06T08:42:59.175Z,17.8
2019-04-06T08:44:01.366Z,18.1
2019-04-06T08:45:03.711Z,18.3
2019-04-06T08:46:06.232Z,18.5
2019-04-06T08:47:09.257Z,18.8
2019-04-06T08:48:11.514Z,18.9
2019-04-06T08:49:13.570Z,19.1
2019-04-06T08:50:16.185Z,19.2
2019-04-06T08:51:18.235Z,19.1
2019-04-06T08:52:20.280Z,18.9
2019-04-06T08:53:22.720Z,19.2
2019-04-06T08:54:25.298Z,19.4
2019-04-06T08:55:27.654Z,19.5
2019-04-06T08:56:30.135Z,19.7
2019-04-06T08:57:32.231Z,19.6
2019-04-06T08:58:34.888Z,19.7
2019-04-06T08:59:37.127Z,20.1
2019-04-06T09:00:39.719Z,20.4
2019-04-06T09:01:42.629Z,20.7
2019-04-06T09:02:45.494Z,20.6
2019-04-06T09:03:48.101Z,20.4
2019-04-06T09:04:50.600Z,20.3
2019-04-06T09:05:53.485Z,20.1
2019-04-06T09:06:55.559Z,20.5
2019-04-06T09:07:58.445Z,20.4
2019-04-06T09:09:01.327Z,20.8
2019-04-06T09:10:03.669Z,20.8
2019-04-06T09:11:06.136Z,20.8
2019-04-06T09:12:08.191Z,20.9
2019-04-06T09:13:10.713Z,20.6
2019-04-06T09:14:13.105Z,21
2019-04-06T09:15:15.358Z,21
2019-04-06T09:16:17.677Z,21.3
2019-04-06T09:17:20.169Z,21.4
2019-04-06T09:18:22.692Z,21.4
2019-04-06T09:19:24.834Z,21.3
2019-04-06T09:20:27.283Z,21.3
2019-04-06T09:21:29.688Z,21.3
2019-04-06T09:22:32.338Z,21.6
2019-04-06T09:23:34.374Z,21.6
2019-04-06T09:24:36.662Z,21.8
2019-04-06T09:25:39.872Z,21.6
2019-04-06T09:26:42.299Z,21.8
2019-04-06T09:27:44.612Z,22.1
2019-04-06T09:28:47.284Z,22.2
2019-04-06T09:29:49.432Z,22.3
2019-04-06T09:30:52.063Z,22.3
2019-04-06T09:31:54.346Z,22.3
2019-04-06T09:32:56.584Z,22.3
2019-04-06T09:33:58.858Z,22.4
2019-04-06T09:35:00.910Z,22.5
2019-04-06T09:36:04.028Z,22.4
2019-04-06T09:37:06.750Z,22
2019-04-06T09:38:09.253Z,22.6
2019-04-06T09:39:11.313Z,22.7
2019-04-06T09:40:13.752Z,22.4
2019-04-06T09:41:16.512Z,22.8
2019-04-06T09:42:18.598Z,23.2
2019-04-06T09:43:20.968Z,23.3
2019-04-06T09:44:23.284Z,24
2019-04-06T09:45:26.087Z,23.9
2019-04-06T09:46:28.392Z,23.6
2019-04-06T09:47:30.744Z,23.5
2019-04-06T09:48:33.189Z,24.1
2019-04-06T09:49:35.801Z,24
2019-04-06T09:50:38.518Z,24
2019-04-06T09:51:40.603Z,24.1
2019-04-06T09:52:43.174Z,23.8
2019-04-06T09:53:45.775Z,24
2019-04-06T09:54:48.089Z,23.5
2019-04-06T09:55:50.947Z,24.1
2019-04-06T09:56:53.034Z,24.5
2019-04-06T09:57:55.232Z,24.5
2019-04-06T09:58:57.770Z,24.5
2019-04-06T09:59:59.969Z,24.5
2019-04-06T10:01:02.039Z,24.9
2019-04-06T10:02:05.870Z,25.2
2019-04-06T10:03:07.938Z,25.1
2019-04-06T10:04:10.102Z,24.6
2019-04-06T10:05:12.370Z,24.7
2019-04-06T10:06:14.822Z,24.7
2019-04-06T10:07:16.935Z,25
2019-04-06T10:08:20.126Z,25.3
2019-04-06T10:09:22.756Z,24.8
2019-04-06T10:10:24.802Z,24.9
2019-04-06T10:11:27.174Z,24.9
2019-04-06T10:12:29.626Z,24.5
2019-04-06T10:13:32.108Z,24.5
2019-04-06T10:14:34.193Z,24.9
2019-04-06T10:15:36.395Z,24.9
2019-04-06T10:16:38.454Z,25.3
2019-04-06T10:17:40.752Z,25.3
2019-04-06T10:18:43.466Z,25.3
2019-04-06T10:19:45.906Z,25.1
2019-04-06T10:20:48.383Z,25.2
2019-04-06T10:21:51.052Z,25.6
2019-04-06T10:22:53.395Z,26
2019-04-06T10:23:55.538Z,25.9
2019-04-06T10:24:57.897Z,25.8
2019-04-06T10:26:00.897Z,25.3
2019-04-06T10:27:03.383Z,25.5
2019-04-06T10:28:06.213Z,25.6
2019-04-06T10:29:08.827Z,26.1
2019-04-06T10:30:11.534Z,26
2019-04-06T10:31:13.633Z,25.9
2019-04-06T10:32:16.061Z,25.9
2019-04-06T10:33:18.349Z,25.8
2019-04-06T10:34:20.934Z,26.3
2019-04-06T10:35:23.439Z,25.9
2019-04-06T10:36:25.908Z,25.6
2019-04-06T10:37:27.955Z,25.7
2019-04-06T10:38:30.179Z,26.1
2019-04-06T10:39:32.567Z,26
2019-04-06T10:40:35.087Z,25.8
2019-04-06T10:41:37.768Z,26
2019-04-06T10:42:40.115Z,26.2
2019-04-06T10:43:42.265Z,26.2
2019-04-06T10:44:44.542Z,26.5
2019-04-06T10:45:46.797Z,26.1
2019-04-06T10:46:49.306Z,26.4
2019-04-06T10:47:52.225Z,25.9
2019-04-06T10:48:54.672Z,25.6
2019-04-06T10:49:57.251Z,25.5
2019-04-06T10:50:59.696Z,25.9
2019-04-06T10:52:02.155Z,25.9
2019-04-06T10:53:04.221Z,25.3
2019-04-06T10:54:06.571Z,25.4
2019-04-06T10:55:09.291Z,25.9
2019-04-06T10:56:12.572Z,25.9
2019-04-06T10:57:14.800Z,25.9
2019-04-06T10:58:17.164Z,26.1
2019-04-06T10:59:19.747Z,25.4
2019-04-06T11:00:22.274Z,25.8
2019-04-06T11:01:25.110Z,26.3
2019-04-06T11:02:27.996Z,26.2
2019-04-06T11:03:30.452Z,26.6
2019-04-06T11:04:33.395Z,26.4
2019-04-06T11:05:36.608Z,26.5
2019-04-06T11:06:38.948Z,26.4
2019-04-06T11:07:41.453Z,26.5
2019-04-06T11:08:43.808Z,26.4
2019-04-06T11:09:46.191Z,26.8
2019-04-06T11:10:48.596Z,27.1
2019-04-06T11:11:50.906Z,27.1
2019-04-06T11:12:53.591Z,26.8
2019-04-06T11:13:55.811Z,26.7
2019-04-06T11:14:58.469Z,26.8
2019-04-06T11:16:01.443Z,27
2019-04-06T11:17:03.862Z,27.4
2019-04-06T11:18:06.064Z,27
2019-04-06T11:19:08.394Z,26.1
2019-04-06T11:20:10.731Z,26.6
2019-04-06T11:21:13.410Z,26.3
2019-04-06T11:22:18.687Z,26.5
2019-04-06T11:23:21.608Z,26.5
2019-04-06T11:24:23.777Z,26
2019-04-06T11:25:26.483Z,26.3
2019-04-06T11:26:28.886Z,26.6
2019-04-06T11:27:30.940Z,26.2
2019-04-06T11:28:33.067Z,26.1
2019-04-06T11:29:35.361Z,26.3
2019-04-06T11:30:37.783Z,26.2
2019-04-06T11:31:40.403Z,26.3
2019-04-06T11:32:42.713Z,26.4
2019-04-06T11:33:45.003Z,26.5
2019-04-06T11:34:47.469Z,26.5
2019-04-06T11:35:49.838Z,26.3
2019-04-06T11:36:52.305Z,26.5
2019-04-06T11:37:54.728Z,26.8
2019-04-06T11:38:57.277Z,26.4
2019-04-06T11:39:59.379Z,26.7
2019-04-06T11:41:02.267Z,26.4
2019-04-06T11:42:05.436Z,26.4
2019-04-06T11:43:08.300Z,26.5
2019-04-06T11:44:10.693Z,26.7
2019-04-06T11:45:13.323Z,26.8
2019-04-06T11:46:15.618Z,27.1
2019-04-06T11:47:18.524Z,27.1
2019-04-06T11:48:20.823Z,27
2019-04-06T11:49:23.173Z,26.6
2019-04-06T11:50:25.574Z,26.4
2019-04-06T11:51:27.779Z,26.8
2019-04-06T11:52:30.154Z,26.8
2019-04-06T11:53:32.564Z,26.5
2019-04-06T11:54:34.645Z,26.5
2019-04-06T11:55:36.758Z,26.6
2019-04-06T11:56:39.597Z,26.9
2019-04-06T11:57:41.850Z,26.8
2019-04-06T11:58:44.091Z,26.9
2019-04-06T11:59:46.142Z,26.8
2019-04-06T12:00:48.581Z,27
2019-04-06T12:01:51.459Z,27.4
2019-04-06T12:02:53.845Z,27
2019-04-06T12:03:56.164Z,26.7
2019-04-06T12:04:58.794Z,27.5
2019-04-06T12:06:01.334Z,27.5
2019-04-06T12:07:03.708Z,27.5
2019-04-06T12:08:08.572Z,27.6
2019-04-06T12:09:10.820Z,27.5
2019-04-06T12:10:13.142Z,27.4
2019-04-06T12:11:15.412Z,27.4
2019-04-06T12:12:17.750Z,27.4
2019-04-06T12:13:20.538Z,27.3
2019-04-06T12:14:23.194Z,27.5
2019-04-06T12:15:25.900Z,27.7
2019-04-06T12:16:28.259Z,27.6
2019-04-06T12:17:31.113Z,27.5
2019-04-06T12:18:33.810Z,27.8
2019-04-06T12:19:36.453Z,28
2019-04-06T12:20:38.701Z,27.8
2019-04-06T12:21:40.941Z,27.5
2019-04-06T12:22:43.679Z,27.6
2019-04-06T12:23:46.100Z,27.9
2019-04-06T12:24:48.552Z,28
2019-04-06T12:25:50.640Z,27.8
2019-04-06T12:26:53.120Z,27.7
2019-04-06T12:27:55.175Z,27.5
2019-04-06T12:28:57.250Z,27.7
2019-04-06T12:29:59.951Z,28.1
2019-04-06T12:31:02.180Z,27.9
2019-04-06T12:32:05.026Z,27.4
2019-04-06T12:33:07.727Z,27.4
2019-04-06T12:34:10.423Z,27.8
2019-04-06T12:35:12.817Z,27.4
2019-04-06T12:36:15.260Z,27.7
2019-04-06T12:37:18.008Z,27.5
2019-04-06T12:38:20.419Z,27.7
2019-04-06T12:39:22.785Z,27.4
2019-04-06T12:40:25.487Z,27.7
2019-04-06T12:41:28.143Z,27.5
2019-04-06T12:42:31.042Z,27.5
2019-04-06T12:43:33.522Z,27.6
2019-04-06T12:44:35.926Z,28.1
2019-04-06T12:45:39.027Z,28
2019-04-06T12:46:41.106Z,28
2019-04-06T12:47:44.171Z,27.6
2019-04-06T12:48:46.814Z,28
2019-04-06T12:49:49.707Z,28.1
2019-04-06T12:50:52.448Z,27.8
2019-04-06T12:51:55.142Z,28
2019-04-06T12:52:58.566Z,28.1
2019-04-06T12:54:01.729Z,27.7
2019-04-06T12:55:06.007Z,27.2
2019-04-06T12:56:08.366Z,27.4
2019-04-06T12:57:11.072Z,27.7
2019-04-06T12:58:13.226Z,27.4
2019-04-06T12:59:15.313Z,27.7
2019-04-06T13:00:17.645Z,27.7
2019-04-06T13:01:20.509Z,28
2019-04-06T13:02:23.541Z,27.8
2019-04-06T13:03:25.949Z,28.2
2019-04-06T13:04:28.022Z,27.7
2019-04-06T13:05:30.302Z,27.3
2019-04-06T13:06:32.769Z,27.2
2019-04-06T13:07:35.493Z,27.8
2019-04-06T13:08:38.016Z,27.4
2019-04-06T13:09:40.298Z,27.7
2019-04-06T13:10:42.478Z,27.9
2019-04-06T13:11:45.511Z,27.3
2019-04-06T13:12:48.599Z,27
2019-04-06T13:13:50.716Z,27.8
2019-04-06T13:14:52.874Z,27.8
2019-04-06T13:15:55.030Z,27.5
2019-04-06T13:16:57.127Z,27.9
2019-04-06T13:17:59.474Z,27.2
2019-04-06T13:19:02.076Z,27.5
2019-04-06T13:20:05.008Z,27.3
2019-04-06T13:21:07.062Z,27.4
2019-04-06T13:22:09.487Z,27.6
2019-04-06T13:23:12.274Z,27.7
2019-04-06T13:24:14.953Z,27.5
2019-04-06T13:25:18.467Z,27.7
2019-04-06T13:26:20.854Z,27.9
2019-04-06T13:27:23.410Z,27.9
2019-04-06T13:28:26.421Z,27.3
2019-04-06T13:29:29.391Z,27.6
2019-04-06T13:30:31.782Z,27.7
2019-04-06T13:31:34.226Z,27.4
2019-04-06T13:32:36.980Z,27.1
2019-04-06T13:33:39.958Z,27.6
2019-04-06T13:34:42.850Z,27.1
2019-04-06T13:35:45.210Z,27.5
2019-04-06T13:36:47.753Z,27.5
2019-04-06T13:37:50.423Z,27.4
2019-04-06T13:38:53.514Z,27.6
2019-04-06T13:39:55.860Z,27.8
2019-04-06T13:40:59.177Z,26.6
2019-04-06T13:42:01.262Z,26.9
2019-04-06T13:43:03.634Z,26.9
2019-04-06T13:44:06.449Z,27
2019-04-06T13:45:09.060Z,26.7
2019-04-06T13:46:11.449Z,26.7
2019-04-06T13:47:14.809Z,26.4
2019-04-06T13:48:17.561Z,26.4
2019-04-06T13:49:20.107Z,26.5
2019-04-06T13:50:23.015Z,26.2
2019-04-06T13:51:25.702Z,26.1
2019-04-06T13:52:28.865Z,26.2
2019-04-06T13:53:31.564Z,26.1
2019-04-06T13:54:34.622Z,26.5
2019-04-06T13:55:37.285Z,27
2019-04-06T13:56:39.850Z,27.2
2019-04-06T13:57:42.163Z,26.9
2019-04-06T13:58:44.353Z,27
2019-04-06T13:59:46.648Z,26.9
2019-04-06T14:00:49.875Z,27.1
2019-04-06T14:01:52.492Z,26.8
2019-04-06T14:02:55.045Z,26.5
2019-04-06T14:03:58.124Z,26.8